sensor_id;sensor_type;location;lat;lon;timestamp;pressure;altitude;pressure_sealevel;temperature;humidity
72086;BME280;64750;52.134;5.424;2023-06-26T00:00:24;101313.34;;;25.30;58.11
72086;BME280;64750;52.134;5.424;2023-06-26T00:02:50;101316.38;;;25.27;58.79
72086;BME280;64750;52.134;5.424;2023-06-26T00:05:17;101314.97;;;25.16;58.87
72086;BME280;64750;52.134;5.424;2023-06-26T00:07:44;101306.22;;;25.14;59.03
72086;BME280;64750;52.134;5.424;2023-06-26T00:10:10;101298.66;;;25.10;58.90
72086;BME280;64750;52.134;5.424;2023-06-26T00:12:37;101315.16;;;25.06;59.11
72086;BME280;64750;52.134;5.424;2023-06-26T00:15:04;101316.53;;;25.02;58.79
72086;BME280;64750;52.134;5.424;2023-06-26T00:17:30;101312.06;;;24.95;59.24
72086;BME280;64750;52.134;5.424;2023-06-26T00:19:57;101311.69;;;24.98;59.33
72086;BME280;64750;52.134;5.424;2023-06-26T00:22:23;101316.25;;;24.89;59.40
72086;BME280;64750;52.134;5.424;2023-06-26T00:24:49;101313.56;;;24.89;59.76
72086;BME280;64750;52.134;5.424;2023-06-26T00:27:16;101315.75;;;24.85;59.42
72086;BME280;64750;52.134;5.424;2023-06-26T00:29:42;101305.38;;;24.82;59.66
72086;BME280;64750;52.134;5.424;2023-06-26T00:32:09;101301.31;;;24.86;59.22
72086;BME280;64750;52.134;5.424;2023-06-26T00:34:35;101297.81;;;24.86;59.69
72086;BME280;64750;52.134;5.424;2023-06-26T00:37:02;101285.88;;;24.80;59.72
72086;BME280;64750;52.134;5.424;2023-06-26T00:39:28;101285.25;;;24.78;59.39
72086;BME280;64750;52.134;5.424;2023-06-26T00:41:55;101283.19;;;24.80;59.18
72086;BME280;64750;52.134;5.424;2023-06-26T00:44:21;101291.25;;;24.80;59.07
72086;BME280;64750;52.134;5.424;2023-06-26T00:46:48;101280.81;;;24.85;58.74
72086;BME280;64750;52.134;5.424;2023-06-26T00:49:15;101277.13;;;24.86;59.02
72086;BME280;64750;52.134;5.424;2023-06-26T00:51:42;101276.81;;;24.81;59.07
72086;BME280;64750;52.134;5.424;2023-06-26T00:54:09;101274.00;;;24.75;59.23
72086;BME280;64750;52.134;5.424;2023-06-26T00:56:36;101283.06;;;24.73;58.92
72086;BME280;64750;52.134;5.424;2023-06-26T00:59:03;101281.75;;;24.69;58.88
72086;BME280;64750;52.134;5.424;2023-06-26T01:01:29;101296.19;;;24.68;58.88
72086;BME280;64750;52.134;5.424;2023-06-26T01:03:56;101294.69;;;24.66;58.87
72086;BME280;64750;52.134;5.424;2023-06-26T01:06:24;101292.00;;;24.66;58.67
72086;BME280;64750;52.134;5.424;2023-06-26T01:08:52;101293.53;;;24.60;58.54
72086;BME280;64750;52.134;5.424;2023-06-26T01:11:18;101299.03;;;24.58;58.83
72086;BME280;64750;52.134;5.424;2023-06-26T01:13:45;101300.53;;;24.61;59.22
72086;BME280;64750;52.134;5.424;2023-06-26T01:16:12;101299.41;;;24.64;59.07
72086;BME280;64750;52.134;5.424;2023-06-26T01:18:41;101303.75;;;24.65;59.21
72086;BME280;64750;52.134;5.424;2023-06-26T01:21:09;101301.38;;;24.70;58.88
72086;BME280;64750;52.134;5.424;2023-06-26T01:26:23;101307.06;;;24.75;58.08
72086;BME280;64750;52.134;5.424;2023-06-26T01:28:51;101312.13;;;24.78;57.36
72086;BME280;64750;52.134;5.424;2023-06-26T01:31:19;101327.81;;;24.66;57.78
72086;BME280;64750;52.134;5.424;2023-06-26T01:33:46;101337.84;;;24.56;57.29
72086;BME280;64750;52.134;5.424;2023-06-26T01:36:13;101320.09;;;24.55;57.69
72086;BME280;64750;52.134;5.424;2023-06-26T01:38:39;101335.53;;;24.53;57.57
72086;BME280;64750;52.134;5.424;2023-06-26T01:41:06;101332.16;;;24.51;57.43
72086;BME280;64750;52.134;5.424;2023-06-26T01:52:19;101345.28;;;24.46;56.84
72086;BME280;64750;52.134;5.424;2023-06-26T01:54:54;101336.06;;;24.40;56.73
72086;BME280;64750;52.134;5.424;2023-06-26T01:57:22;101335.38;;;24.46;56.57
72086;BME280;64750;52.134;5.424;2023-06-26T01:59:51;101341.94;;;24.44;56.33
72086;BME280;64750;52.134;5.424;2023-06-26T02:02:18;101336.25;;;24.38;56.68
72086;BME280;64750;52.134;5.424;2023-06-26T02:04:44;101341.63;;;24.30;56.75
72086;BME280;64750;52.134;5.424;2023-06-26T02:07:14;101339.28;;;24.27;57.06
72086;BME280;64750;52.134;5.424;2023-06-26T02:09:41;101335.09;;;24.16;56.19
72086;BME280;64750;52.134;5.424;2023-06-26T02:12:08;101332.59;;;24.23;56.25
72086;BME280;64750;52.134;5.424;2023-06-26T02:14:34;101349.16;;;24.35;56.44
72086;BME280;64750;52.134;5.424;2023-06-26T02:17:01;101343.13;;;24.41;56.55
72086;BME280;64750;52.134;5.424;2023-06-26T02:19:28;101345.47;;;24.36;56.50
72086;BME280;64750;52.134;5.424;2023-06-26T02:21:55;101347.19;;;24.20;56.81
72086;BME280;64750;52.134;5.424;2023-06-26T02:24:21;101347.00;;;24.14;56.95
72086;BME280;64750;52.134;5.424;2023-06-26T02:26:48;101347.19;;;24.12;56.90
72086;BME280;64750;52.134;5.424;2023-06-26T02:29:15;101348.69;;;24.15;57.00
72086;BME280;64750;52.134;5.424;2023-06-26T02:31:42;101343.66;;;24.03;57.76
72086;BME280;64750;52.134;5.424;2023-06-26T02:34:09;101343.16;;;24.08;57.58
72086;BME280;64750;52.134;5.424;2023-06-26T02:36:36;101352.22;;;24.07;57.69
72086;BME280;64750;52.134;5.424;2023-06-26T02:39:02;101347.19;;;24.04;57.69
72086;BME280;64750;52.134;5.424;2023-06-26T02:41:29;101359.94;;;24.02;57.72
72086;BME280;64750;52.134;5.424;2023-06-26T02:43:55;101360.63;;;23.96;57.44
72086;BME280;64750;52.134;5.424;2023-06-26T02:46:21;101355.22;;;23.87;58.17
72086;BME280;64750;52.134;5.424;2023-06-26T02:48:48;101354.88;;;23.82;58.41
72086;BME280;64750;52.134;5.424;2023-06-26T02:51:15;101362.59;;;23.85;58.19
72086;BME280;64750;52.134;5.424;2023-06-26T02:53:41;101358.94;;;23.78;58.51
72086;BME280;64750;52.134;5.424;2023-06-26T02:56:07;101359.78;;;23.87;58.58
72086;BME280;64750;52.134;5.424;2023-06-26T02:58:34;101366.44;;;23.83;58.56
72086;BME280;64750;52.134;5.424;2023-06-26T03:01:01;101367.97;;;23.77;58.86
72086;BME280;64750;52.134;5.424;2023-06-26T03:03:27;101374.03;;;23.79;58.76
72086;BME280;64750;52.134;5.424;2023-06-26T03:05:54;101363.59;;;23.76;59.13
72086;BME280;64750;52.134;5.424;2023-06-26T03:08:20;101359.59;;;23.72;59.23
72086;BME280;64750;52.134;5.424;2023-06-26T03:10:47;101370.28;;;23.64;59.66
72086;BME280;64750;52.134;5.424;2023-06-26T03:13:13;101370.94;;;23.49;59.48
72086;BME280;64750;52.134;5.424;2023-06-26T03:15:40;101375.78;;;23.46;60.17
72086;BME280;64750;52.134;5.424;2023-06-26T03:18:06;101372.97;;;23.47;60.12
72086;BME280;64750;52.134;5.424;2023-06-26T03:20:33;101382.34;;;23.43;60.23
72086;BME280;64750;52.134;5.424;2023-06-26T03:22:59;101377.31;;;23.48;59.92
72086;BME280;64750;52.134;5.424;2023-06-26T03:25:26;101372.97;;;23.47;60.29
72086;BME280;64750;52.134;5.424;2023-06-26T03:27:52;101379.34;;;23.46;60.50
72086;BME280;64750;52.134;5.424;2023-06-26T03:30:19;101384.84;;;23.36;60.57
72086;BME280;64750;52.134;5.424;2023-06-26T03:32:45;101376.47;;;23.39;60.57
72086;BME280;64750;52.134;5.424;2023-06-26T03:35:12;101382.19;;;23.45;60.64
72086;BME280;64750;52.134;5.424;2023-06-26T03:37:38;101383.72;;;23.47;60.67
72086;BME280;64750;52.134;5.424;2023-06-26T03:40:07;101377.81;;;23.43;60.72
72086;BME280;64750;52.134;5.424;2023-06-26T03:42:33;101382.16;;;23.36;60.87
72086;BME280;64750;52.134;5.424;2023-06-26T03:45:00;101384.88;;;23.45;60.77
72086;BME280;64750;52.134;5.424;2023-06-26T03:47:26;101393.41;;;23.40;60.68
72086;BME280;64750;52.134;5.424;2023-06-26T03:49:53;101396.38;;;23.29;61.44
72086;BME280;64750;52.134;5.424;2023-06-26T03:52:19;101400.88;;;23.20;61.30
72086;BME280;64750;52.134;5.424;2023-06-26T03:54:46;101398.94;;;23.04;61.58
72086;BME280;64750;52.134;5.424;2023-06-26T03:57:13;101408.50;;;23.06;61.49
72086;BME280;64750;52.134;5.424;2023-06-26T03:59:39;101407.34;;;23.09;61.19
72086;BME280;64750;52.134;5.424;2023-06-26T04:02:06;101401.09;;;23.00;61.16
72086;BME280;64750;52.134;5.424;2023-06-26T04:04:32;101416.94;;;22.85;61.05
72086;BME280;64750;52.134;5.424;2023-06-26T04:06:59;101427.91;;;22.74;61.26
72086;BME280;64750;52.134;5.424;2023-06-26T04:09:26;101427.00;;;22.83;61.07
72086;BME280;64750;52.134;5.424;2023-06-26T04:11:52;101429.78;;;22.73;61.60
72086;BME280;64750;52.134;5.424;2023-06-26T04:14:19;101429.44;;;22.76;61.52
72086;BME280;64750;52.134;5.424;2023-06-26T04:16:45;101428.94;;;22.73;61.21
72086;BME280;64750;52.134;5.424;2023-06-26T04:19:12;101441.97;;;22.68;61.09
72086;BME280;64750;52.134;5.424;2023-06-26T04:21:40;101448.41;;;22.57;61.65
72086;BME280;64750;52.134;5.424;2023-06-26T04:24:06;101442.88;;;22.58;61.63
72086;BME280;64750;52.134;5.424;2023-06-26T04:26:33;101437.03;;;22.55;61.86
72086;BME280;64750;52.134;5.424;2023-06-26T04:29:00;101437.31;;;22.52;61.81
72086;BME280;64750;52.134;5.424;2023-06-26T04:31:26;101451.66;;;22.42;62.13
72086;BME280;64750;52.134;5.424;2023-06-26T04:33:53;101449.19;;;22.49;61.96
72086;BME280;64750;52.134;5.424;2023-06-26T04:36:21;101446.16;;;22.44;62.22
72086;BME280;64750;52.134;5.424;2023-06-26T04:38:48;101450.50;;;22.45;62.02
72086;BME280;64750;52.134;5.424;2023-06-26T04:41:14;101457.31;;;22.39;62.23
72086;BME280;64750;52.134;5.424;2023-06-26T04:43:40;101455.16;;;22.43;62.28
72086;BME280;64750;52.134;5.424;2023-06-26T04:46:07;101469.25;;;22.45;61.96
72086;BME280;64750;52.134;5.424;2023-06-26T04:48:34;101468.19;;;22.38;62.18
72086;BME280;64750;52.134;5.424;2023-06-26T04:51:00;101474.28;;;22.30;62.31
72086;BME280;64750;52.134;5.424;2023-06-26T04:53:27;101482.16;;;22.32;62.24
72086;BME280;64750;52.134;5.424;2023-06-26T04:55:53;101489.91;;;22.35;62.64
72086;BME280;64750;52.134;5.424;2023-06-26T04:58:20;101488.63;;;22.39;62.25
72086;BME280;64750;52.134;5.424;2023-06-26T05:00:46;101490.16;;;22.41;62.12
72086;BME280;64750;52.134;5.424;2023-06-26T05:03:15;101493.00;;;22.40;61.86
72086;BME280;64750;52.134;5.424;2023-06-26T05:05:43;101490.06;;;22.33;61.98
72086;BME280;64750;52.134;5.424;2023-06-26T05:08:17;101492.81;;;22.23;62.08
72086;BME280;64750;52.134;5.424;2023-06-26T05:10:44;101494.94;;;22.20;62.09
72086;BME280;64750;52.134;5.424;2023-06-26T05:13:11;101506.34;;;22.22;62.23
72086;BME280;64750;52.134;5.424;2023-06-26T05:15:38;101500.47;;;22.18;61.90
72086;BME280;64750;52.134;5.424;2023-06-26T05:18:04;101492.75;;;22.15;61.82
72086;BME280;64750;52.134;5.424;2023-06-26T05:20:31;101495.44;;;22.15;62.00
72086;BME280;64750;52.134;5.424;2023-06-26T05:22:58;101495.94;;;22.19;62.22
72086;BME280;64750;52.134;5.424;2023-06-26T05:25:25;101510.56;;;22.24;61.75
72086;BME280;64750;52.134;5.424;2023-06-26T05:27:53;101526.63;;;22.24;62.08
72086;BME280;64750;52.134;5.424;2023-06-26T05:30:20;101518.81;;;22.13;62.07
72086;BME280;64750;52.134;5.424;2023-06-26T05:32:47;101519.72;;;22.04;62.11
72086;BME280;64750;52.134;5.424;2023-06-26T05:35:15;101523.00;;;21.98;62.23
72086;BME280;64750;52.134;5.424;2023-06-26T05:37:42;101518.31;;;22.00;62.30
72086;BME280;64750;52.134;5.424;2023-06-26T05:40:09;101524.53;;;22.00;62.17
72086;BME280;64750;52.134;5.424;2023-06-26T05:42:36;101534.53;;;21.98;62.29
72086;BME280;64750;52.134;5.424;2023-06-26T05:45:03;101538.63;;;22.02;62.33
72086;BME280;64750;52.134;5.424;2023-06-26T05:47:29;101533.13;;;22.04;62.00
72086;BME280;64750;52.134;5.424;2023-06-26T05:49:56;101546.50;;;22.04;62.44
72086;BME280;64750;52.134;5.424;2023-06-26T05:52:23;101532.81;;;22.07;61.69
72086;BME280;64750;52.134;5.424;2023-06-26T05:54:50;101541.16;;;22.04;61.86
72086;BME280;64750;52.134;5.424;2023-06-26T05:57:16;101545.63;;;22.03;61.66
72086;BME280;64750;52.134;5.424;2023-06-26T05:59:43;101546.50;;;22.04;61.59
72086;BME280;64750;52.134;5.424;2023-06-26T06:02:11;101554.38;;;22.05;60.05
72086;BME280;64750;52.134;5.424;2023-06-26T06:04:38;101558.47;;;22.00;60.77
72086;BME280;64750;52.134;5.424;2023-06-26T06:07:05;101569.19;;;22.00;60.99
72086;BME280;64750;52.134;5.424;2023-06-26T06:09:31;101578.63;;;22.04;60.68
72086;BME280;64750;52.134;5.424;2023-06-26T06:11:59;101591.31;;;22.02;60.43
72086;BME280;64750;52.134;5.424;2023-06-26T06:14:25;101585.78;;;22.03;60.51
72086;BME280;64750;52.134;5.424;2023-06-26T06:16:51;101580.75;;;22.00;59.23
72086;BME280;64750;52.134;5.424;2023-06-26T06:19:18;101589.91;;;21.98;59.08
72086;BME280;64750;52.134;5.424;2023-06-26T06:21:44;101591.22;;;21.93;59.40
72086;BME280;64750;52.134;5.424;2023-06-26T06:24:11;101587.78;;;22.01;59.28
72086;BME280;64750;52.134;5.424;2023-06-26T06:26:37;101587.31;;;22.06;59.45
72086;BME280;64750;52.134;5.424;2023-06-26T06:29:03;101592.41;;;22.09;60.18
72086;BME280;64750;52.134;5.424;2023-06-26T06:31:30;101597.84;;;22.17;60.10
72086;BME280;64750;52.134;5.424;2023-06-26T06:33:57;101600.59;;;22.07;60.33
72086;BME280;64750;52.134;5.424;2023-06-26T06:36:23;101603.94;;;22.09;60.12
72086;BME280;64750;52.134;5.424;2023-06-26T06:38:50;101628.06;;;22.00;60.53
72086;BME280;64750;52.134;5.424;2023-06-26T06:41:16;101628.28;;;21.88;60.73
72086;BME280;64750;52.134;5.424;2023-06-26T06:43:43;101635.38;;;21.79;60.96
72086;BME280;64750;52.134;5.424;2023-06-26T06:46:09;101633.66;;;21.78;61.30
72086;BME280;64750;52.134;5.424;2023-06-26T06:48:36;101640.97;;;21.86;61.49
72086;BME280;64750;52.134;5.424;2023-06-26T06:51:02;101646.88;;;21.90;61.56
72086;BME280;64750;52.134;5.424;2023-06-26T06:53:31;101642.34;;;21.90;61.59
72086;BME280;64750;52.134;5.424;2023-06-26T06:55:57;101654.66;;;21.83;62.19
72086;BME280;64750;52.134;5.424;2023-06-26T06:58:24;101657.56;;;21.90;61.77
72086;BME280;64750;52.134;5.424;2023-06-26T07:00:50;101644.47;;;21.87;61.69
72086;BME280;64750;52.134;5.424;2023-06-26T07:03:18;101650.38;;;21.90;61.47
72086;BME280;64750;52.134;5.424;2023-06-26T07:05:44;101647.84;;;21.89;61.58
72086;BME280;64750;52.134;5.424;2023-06-26T07:08:11;101656.72;;;21.89;61.71
72086;BME280;64750;52.134;5.424;2023-06-26T07:10:37;101659.78;;;21.94;61.49
72086;BME280;64750;52.134;5.424;2023-06-26T07:13:05;101674.19;;;21.93;61.47
72086;BME280;64750;52.134;5.424;2023-06-26T07:15:32;101660.94;;;21.92;61.68
72086;BME280;64750;52.134;5.424;2023-06-26T07:17:59;101670.09;;;21.89;61.44
72086;BME280;64750;52.134;5.424;2023-06-26T07:20:25;101667.88;;;21.85;61.79
72086;BME280;64750;52.134;5.424;2023-06-26T07:22:52;101673.56;;;22.00;61.86
72086;BME280;64750;52.134;5.424;2023-06-26T07:25:19;101681.47;;;22.01;62.13
72086;BME280;64750;52.134;5.424;2023-06-26T07:27:45;101702.03;;;22.01;62.01
72086;BME280;64750;52.134;5.424;2023-06-26T07:30:12;101697.72;;;21.80;62.54
72086;BME280;64750;52.134;5.424;2023-06-26T07:32:38;101689.44;;;21.83;62.29
72086;BME280;64750;52.134;5.424;2023-06-26T07:35:07;101686.88;;;21.82;62.57
72086;BME280;64750;52.134;5.424;2023-06-26T07:37:33;101698.03;;;21.77;62.23
72086;BME280;64750;52.134;5.424;2023-06-26T07:40:00;101696.25;;;21.68;62.51
72086;BME280;64750;52.134;5.424;2023-06-26T07:42:26;101699.72;;;21.78;62.16
72086;BME280;64750;52.134;5.424;2023-06-26T07:44:52;101697.56;;;21.91;62.10
72086;BME280;64750;52.134;5.424;2023-06-26T07:47:19;101696.97;;;22.07;61.95
72086;BME280;64750;52.134;5.424;2023-06-26T07:49:45;101707.84;;;22.24;61.83
72086;BME280;64750;52.134;5.424;2023-06-26T07:52:12;101703.34;;;22.24;61.19
72086;BME280;64750;52.134;5.424;2023-06-26T07:54:41;101712.69;;;22.20;60.89
72086;BME280;64750;52.134;5.424;2023-06-26T07:57:08;101705.47;;;22.21;61.15
72086;BME280;64750;52.134;5.424;2023-06-26T07:59:35;101719.13;;;22.27;61.26
72086;BME280;64750;52.134;5.424;2023-06-26T08:02:02;101719.13;;;22.27;60.81
72086;BME280;64750;52.134;5.424;2023-06-26T08:04:29;101712.69;;;22.20;61.10
72086;BME280;64750;52.134;5.424;2023-06-26T08:06:59;101713.94;;;22.16;60.38
72086;BME280;64750;52.134;5.424;2023-06-26T08:09:27;101713.41;;;22.12;60.61
72086;BME280;64750;52.134;5.424;2023-06-26T08:11:55;101713.38;;;22.22;60.93
72086;BME280;64750;52.134;5.424;2023-06-26T08:14:22;101718.88;;;22.21;61.01
72086;BME280;64750;52.134;5.424;2023-06-26T08:16:48;101703.34;;;22.24;60.79
72086;BME280;64750;52.134;5.424;2023-06-26T08:19:16;101714.31;;;22.31;60.96
72086;BME280;64750;52.134;5.424;2023-06-26T08:21:45;101718.81;;;22.40;60.75
72086;BME280;64750;52.134;5.424;2023-06-26T08:24:11;101722.19;;;22.42;60.39
72086;BME280;64750;52.134;5.424;2023-06-26T08:26:39;101723.72;;;22.45;60.08
72086;BME280;64750;52.134;5.424;2023-06-26T08:29:06;101717.94;;;22.50;59.44
72086;BME280;64750;52.134;5.424;2023-06-26T08:31:39;101721.28;;;22.52;58.98
72086;BME280;64750;52.134;5.424;2023-06-26T08:34:08;101725.56;;;22.44;59.17
72086;BME280;64750;52.134;5.424;2023-06-26T08:36:34;101728.50;;;22.51;58.48
72086;BME280;64750;52.134;5.424;2023-06-26T08:39:01;101735.81;;;22.49;58.45
72086;BME280;64750;52.134;5.424;2023-06-26T08:41:28;101734.84;;;22.50;58.57
72086;BME280;64750;52.134;5.424;2023-06-26T08:43:54;101757.97;;;22.51;57.07
72086;BME280;64750;52.134;5.424;2023-06-26T08:46:21;101743.03;;;22.49;55.63
72086;BME280;64750;52.134;5.424;2023-06-26T08:49:01;101747.91;;;22.53;56.31
72086;BME280;64750;52.134;5.424;2023-06-26T08:51:28;101746.53;;;22.49;56.25
72086;BME280;64750;52.134;5.424;2023-06-26T08:53:58;101752.88;;;22.48;55.29
72086;BME280;64750;52.134;5.424;2023-06-26T08:56:41;101757.72;;;22.35;55.52
72086;BME280;64750;52.134;5.424;2023-06-26T08:59:09;101756.97;;;22.52;55.99
72086;BME280;64750;52.134;5.424;2023-06-26T09:01:40;101765.53;;;22.56;54.50
72086;BME280;64750;52.134;5.424;2023-06-26T09:04:07;101778.03;;;22.37;53.81
72086;BME280;64750;52.134;5.424;2023-06-26T09:06:34;101772.09;;;22.34;55.09
72086;BME280;64750;52.134;5.424;2023-06-26T09:09:00;101778.28;;;22.44;55.76
72086;BME280;64750;52.134;5.424;2023-06-26T09:11:27;101780.03;;;22.63;55.14
72086;BME280;64750;52.134;5.424;2023-06-26T09:13:55;101788.63;;;22.67;56.05
72086;BME280;64750;52.134;5.424;2023-06-26T09:16:25;101781.09;;;22.52;53.66
72086;BME280;64750;52.134;5.424;2023-06-26T09:18:56;101797.19;;;22.33;54.20
72086;BME280;64750;52.134;5.424;2023-06-26T09:21:22;101801.41;;;22.35;54.85
72086;BME280;64750;52.134;5.424;2023-06-26T09:23:51;101791.97;;;22.41;54.69
72086;BME280;64750;52.134;5.424;2023-06-26T09:26:18;101812.13;;;22.45;53.52
72086;BME280;64750;52.134;5.424;2023-06-26T09:28:45;101805.47;;;22.49;53.47
72086;BME280;64750;52.134;5.424;2023-06-26T09:31:12;101810.44;;;22.44;52.80
72086;BME280;64750;52.134;5.424;2023-06-26T09:33:42;101810.03;;;22.39;53.43
72086;BME280;64750;52.134;5.424;2023-06-26T09:36:20;101811.22;;;22.54;53.19
72086;BME280;64750;52.134;5.424;2023-06-26T09:38:50;101812.03;;;22.65;52.93
72086;BME280;64750;52.134;5.424;2023-06-26T09:41:17;101801.28;;;22.74;53.97
72086;BME280;64750;52.134;5.424;2023-06-26T09:43:51;101806.47;;;22.76;52.83
72086;BME280;64750;52.134;5.424;2023-06-26T09:46:24;101807.25;;;22.86;53.55
72086;BME280;64750;52.134;5.424;2023-06-26T09:49:00;101810.50;;;22.62;52.89
72086;BME280;64750;52.134;5.424;2023-06-26T09:51:29;101826.91;;;22.49;53.68
72086;BME280;64750;52.134;5.424;2023-06-26T09:53:56;101824.53;;;22.46;52.54
72086;BME280;64750;52.134;5.424;2023-06-26T09:56:23;101829.31;;;22.52;53.05
72086;BME280;64750;52.134;5.424;2023-06-26T09:58:49;101828.69;;;22.58;52.04
72086;BME280;64750;52.134;5.424;2023-06-26T10:01:17;101837.75;;;22.57;51.20
72086;BME280;64750;52.134;5.424;2023-06-26T10:03:44;101844.09;;;22.56;51.95
72086;BME280;64750;52.134;5.424;2023-06-26T10:06:11;101841.19;;;22.40;52.02
72086;BME280;64750;52.134;5.424;2023-06-26T10:08:39;101856.56;;;22.28;52.11
72086;BME280;64750;52.134;5.424;2023-06-26T10:11:11;101849.75;;;22.34;52.41
72086;BME280;64750;52.134;5.424;2023-06-26T10:13:42;101839.03;;;22.34;52.44
72086;BME280;64750;52.134;5.424;2023-06-26T10:16:13;101854.56;;;22.30;51.65
72086;BME280;64750;52.134;5.424;2023-06-26T10:18:43;101853.72;;;22.29;50.94
72086;BME280;64750;52.134;5.424;2023-06-26T10:21:11;101856.66;;;22.46;50.94
72086;BME280;64750;52.134;5.424;2023-06-26T10:23:39;101851.53;;;22.63;50.94
72086;BME280;64750;52.134;5.424;2023-06-26T10:26:07;101859.34;;;22.84;51.13
72086;BME280;64750;52.134;5.424;2023-06-26T10:28:36;101862.66;;;22.96;50.30
72086;BME280;64750;52.134;5.424;2023-06-26T10:31:05;101855.63;;;22.94;49.50
72086;BME280;64750;52.134;5.424;2023-06-26T10:33:34;101869.03;;;22.94;49.72
72086;BME280;64750;52.134;5.424;2023-06-26T10:36:18;101877.88;;;23.05;50.16
72086;BME280;64750;52.134;5.424;2023-06-26T10:38:53;101870.88;;;22.84;49.72
72086;BME280;64750;52.134;5.424;2023-06-26T10:41:22;101868.63;;;22.89;50.44
72086;BME280;64750;52.134;5.424;2023-06-26T10:46:47;101854.00;;;23.02;48.17
72086;BME280;64750;52.134;5.424;2023-06-26T10:49:14;101866.44;;;23.03;49.07
72086;BME280;64750;52.134;5.424;2023-06-26T10:51:48;101865.69;;;23.10;49.85
72086;BME280;64750;52.134;5.424;2023-06-26T10:54:19;101864.38;;;23.24;48.53
72086;BME280;64750;52.134;5.424;2023-06-26T10:56:48;101878.84;;;23.32;48.47
72086;BME280;64750;52.134;5.424;2023-06-26T10:59:19;101887.00;;;23.40;47.78
72086;BME280;64750;52.134;5.424;2023-06-26T11:01:56;101890.97;;;23.36;47.63
72086;BME280;64750;52.134;5.424;2023-06-26T11:04:49;101890.00;;;23.37;47.35
72086;BME280;64750;52.134;5.424;2023-06-26T11:07:23;101879.47;;;23.25;47.77
72086;BME280;64750;52.134;5.424;2023-06-26T11:10:07;101888.19;;;23.27;47.78
72086;BME280;64750;52.134;5.424;2023-06-26T11:12:40;101899.47;;;23.31;48.60
72086;BME280;64750;52.134;5.424;2023-06-26T11:17:36;101898.72;;;23.57;46.71
72086;BME280;64750;52.134;5.424;2023-06-26T11:20:13;101906.88;;;23.19;47.61
72086;BME280;64750;52.134;5.424;2023-06-26T11:22:41;101907.63;;;23.02;47.75
72086;BME280;64750;52.134;5.424;2023-06-26T11:25:09;101917.69;;;23.00;46.89
72086;BME280;64750;52.134;5.424;2023-06-26T11:27:43;101915.78;;;22.82;47.58
72086;BME280;64750;52.134;5.424;2023-06-26T11:30:11;101921.31;;;22.71;48.15
72086;BME280;64750;52.134;5.424;2023-06-26T11:32:48;101927.31;;;22.92;48.85
72086;BME280;64750;52.134;5.424;2023-06-26T11:35:25;101916.22;;;23.15;48.07
72086;BME280;64750;52.134;5.424;2023-06-26T11:37:57;101924.66;;;23.20;48.04
72086;BME280;64750;52.134;5.424;2023-06-26T11:40:34;101921.44;;;23.17;48.25
72086;BME280;64750;52.134;5.424;2023-06-26T11:43:02;101928.19;;;23.11;47.70
72086;BME280;64750;52.134;5.424;2023-06-26T11:45:31;101927.28;;;23.02;47.76
72086;BME280;64750;52.134;5.424;2023-06-26T11:47:59;101929.47;;;23.07;48.16
72086;BME280;64750;52.134;5.424;2023-06-26T11:50:27;101946.28;;;23.09;47.83
72086;BME280;64750;52.134;5.424;2023-06-26T11:52:57;101949.84;;;23.00;46.46
72086;BME280;64750;52.134;5.424;2023-06-26T11:55:25;101948.50;;;22.86;46.59
72086;BME280;64750;52.134;5.424;2023-06-26T11:57:56;101951.28;;;22.94;46.62
72086;BME280;64750;52.134;5.424;2023-06-26T12:00:23;101952.66;;;22.98;46.59
72086;BME280;64750;52.134;5.424;2023-06-26T12:02:50;101964.75;;;23.12;47.03
72086;BME280;64750;52.134;5.424;2023-06-26T12:05:18;101964.19;;;23.18;46.33
72086;BME280;64750;52.134;5.424;2023-06-26T12:07:46;101962.22;;;23.20;46.55
72086;BME280;64750;52.134;5.424;2023-06-26T12:10:14;101963.22;;;23.47;47.10
72086;BME280;64750;52.134;5.424;2023-06-26T12:12:41;101981.16;;;23.65;46.17
72086;BME280;64750;52.134;5.424;2023-06-26T12:15:10;101971.94;;;23.49;46.10
72086;BME280;64750;52.134;5.424;2023-06-26T12:17:38;101981.59;;;23.42;44.21
72086;BME280;64750;52.134;5.424;2023-06-26T12:20:21;101994.41;;;23.10;44.53
72086;BME280;64750;52.134;5.424;2023-06-26T12:22:48;101994.41;;;23.01;45.51
72086;BME280;64750;52.134;5.424;2023-06-26T12:25:21;102000.56;;;22.83;45.57
72086;BME280;64750;52.134;5.424;2023-06-26T12:27:48;101985.31;;;22.74;45.22
72086;BME280;64750;52.134;5.424;2023-06-26T12:30:16;101977.56;;;22.81;45.89
72086;BME280;64750;52.134;5.424;2023-06-26T12:32:45;101969.06;;;22.85;45.06
72086;BME280;64750;52.134;5.424;2023-06-26T12:35:15;101967.69;;;22.81;44.22
72086;BME280;64750;52.134;5.424;2023-06-26T12:37:43;101971.81;;;22.75;45.15
72086;BME280;64750;52.134;5.424;2023-06-26T12:40:19;101990.81;;;22.82;45.13
72086;BME280;64750;52.134;5.424;2023-06-26T12:42:48;101988.41;;;22.79;46.51
72086;BME280;64750;52.134;5.424;2023-06-26T12:45:15;101989.44;;;22.68;43.93
72086;BME280;64750;52.134;5.424;2023-06-26T12:48:10;101993.38;;;22.74;45.05
72086;BME280;64750;52.134;5.424;2023-06-26T12:50:43;101998.50;;;22.57;45.26
72086;BME280;64750;52.134;5.424;2023-06-26T12:53:10;101997.91;;;22.64;45.53
72086;BME280;64750;52.134;5.424;2023-06-26T12:55:39;101994.38;;;22.73;45.71
72086;BME280;64750;52.134;5.424;2023-06-26T12:58:05;101988.16;;;22.72;45.08
72086;BME280;64750;52.134;5.424;2023-06-26T13:00:32;101992.84;;;22.70;45.49
72086;BME280;64750;52.134;5.424;2023-06-26T13:03:00;101993.09;;;22.77;44.99
72086;BME280;64750;52.134;5.424;2023-06-26T13:05:26;102000.16;;;22.78;45.46
72086;BME280;64750;52.134;5.424;2023-06-26T13:07:53;102000.56;;;22.73;45.04
72086;BME280;64750;52.134;5.424;2023-06-26T13:10:19;101987.16;;;22.83;45.67